| Temperature (°F) | Max | Average | Min |
|---|---|---|---|
| Max Temperature | 89 | 73.96 | 54 |
| Avg Temperature | 74.88 | 60.24 | 34.13 |
| Min Temperature | 62 | 48.96 | 28 |
| Dew Point (°F) | Max | Average | Min |
|---|---|---|---|
| Dew Point | 69 | 45.77 | 4 |
| Precipitation (in) | Max | Average | Min | Sum |
|---|---|---|---|---|
| Precipitation | 0.40 | 0.02 | 0.00 | 0.60 |
| Snowdepth | 0.00 | 0.00 | 0.00 | 0.00 |
| Wind (mph) | Max | Average | Min |
|---|---|---|---|
| Wind | 23 | 7.44 | 0 |
| Gust Wind | 36 | 3.17 | 0 |
| Sea Level Pressure (in) | Max | Average | Min |
|---|---|---|---|
| Sea Level Pressure | 30.32 | 30.01 | 29.72 |
| Date | Temperature (°F) | Dew Point (°F) | Humidity (%) | Wind Speed (mph) | Pressure (in) | Precipitation (in) | ||||||||||
|---|---|---|---|---|---|---|---|---|---|---|---|---|---|---|---|---|
| Max | Avg | Min | Max | Avg | Min | Max | Avg | Min | Max | Avg | Min | Max | Avg | Min | ||
| 2/28/2026 | 80 | 68.4 | 59 | 66 | 63.5 | 58 | 100 | 85.2 | 64 | 17 | 7.0 | 0 | 30.0 | 29.9 | 29.8 | 0.14 |
| 2/27/2026 | 78 | 67.9 | 59 | 67 | 63.3 | 57 | 97 | 86.7 | 49 | 15 | 7.4 | 0 | 29.9 | 29.9 | 29.8 | 0.00 |
| 2/26/2026 | 82 | 63.3 | 58 | 57 | 50.1 | 41 | 93 | 65.6 | 40 | 13 | 4.8 | 0 | 30.1 | 30.0 | 29.9 | 0.00 |
| 2/25/2026 | 79 | 55.3 | 47 | 39 | 31.5 | 22 | 93 | 48.8 | 15 | 15 | 5.5 | 0 | 30.1 | 30.1 | 30.0 | 0.00 |
| 2/24/2026 | 59 | 47.8 | 37 | 31 | 22.4 | 16 | 58 | 39.1 | 19 | 15 | 6.9 | 0 | 30.2 | 30.1 | 30.1 | 0.00 |
| 2/23/2026 | 59 | 49.6 | 37 | 32 | 21.5 | 15 | 56 | 34.2 | 23 | 22 | 14.2 | 0 | 30.1 | 30.1 | 30.0 | 0.01 |
| 2/22/2026 | 57 | 67.3 | 43 | 69 | 53.9 | 16 | 100 | 68.5 | 22 | 21 | 12.2 | 3 | 30.0 | 29.9 | 29.8 | 0.00 |
| 2/21/2026 | 77 | 74.9 | 53 | 64 | 56.7 | 50 | 90 | 57.6 | 28 | 10 | 5.0 | 0 | 30.0 | 29.9 | 29.9 | 0.00 |
| 2/20/2026 | 89 | 74.8 | 62 | 64 | 60.0 | 54 | 100 | 64.6 | 32 | 16 | 7.2 | 0 | 29.9 | 29.9 | 29.8 | 0.00 |
| 2/19/2026 | 89 | 71.1 | 62 | 65 | 61.1 | 58 | 100 | 74.4 | 41 | 16 | 7.5 | 0 | 30.0 | 29.9 | 29.8 | 0.00 |
| 2/18/2026 | 85 | 69.6 | 60 | 61 | 57.8 | 53 | 93 | 69.3 | 38 | 14 | 6.7 | 0 | 30.0 | 30.0 | 29.9 | 0.00 |
| 2/17/2026 | 83 | 65.6 | 59 | 59 | 54.8 | 51 | 97 | 71.4 | 43 | 14 | 8.4 | 3 | 30.1 | 30.0 | 30.0 | 0.00 |
| 2/16/2026 | 79 | 63.2 | 52 | 65 | 58.4 | 52 | 100 | 85.2 | 63 | 17 | 9.9 | 6 | 30.0 | 29.9 | 29.7 | 0.40 |
| 2/15/2026 | 70 | 69.3 | 55 | 64 | 60.0 | 52 | 97 | 76.1 | 36 | 21 | 10.9 | 0 | 30.0 | 29.8 | 29.7 | 0.00 |
| 2/14/2026 | 84 | 65.6 | 61 | 61 | 55.0 | 50 | 90 | 70.9 | 42 | 15 | 8.2 | 5 | 30.1 | 30.0 | 30.0 | 0.00 |
| 2/13/2026 | 80 | 63.2 | 54 | 55 | 50.5 | 45 | 96 | 66.7 | 34 | 13 | 5.0 | 0 | 30.1 | 30.0 | 30.0 | 0.00 |
| 2/12/2026 | 78 | 63.5 | 52 | 61 | 57.9 | 48 | 100 | 83.0 | 62 | 14 | 6.8 | 0 | 30.1 | 30.0 | 29.9 | 0.00 |
| 2/11/2026 | 76 | 63.4 | 56 | 55 | 51.3 | 46 | 86 | 66.6 | 45 | 13 | 5.5 | 0 | 30.2 | 30.1 | 30.0 | 0.00 |
| 2/10/2026 | 77 | 62.6 | 51 | 51 | 44.9 | 38 | 100 | 59.6 | 25 | 12 | 3.2 | 0 | 30.2 | 30.1 | 30.1 | 0.00 |
| 2/9/2026 | 79 | 59.8 | 46 | 50 | 46.0 | 39 | 100 | 66.3 | 28 | 9 | 3.3 | 0 | 30.2 | 30.2 | 30.1 | 0.00 |
| 2/8/2026 | 75 | 56.0 | 45 | 49 | 40.7 | 34 | 100 | 63.5 | 27 | 8 | 4.2 | 0 | 30.2 | 30.2 | 30.1 | 0.00 |
| 2/7/2026 | 71 | 58.6 | 40 | 52 | 42.2 | 29 | 93 | 61.5 | 24 | 15 | 8.4 | 3 | 30.1 | 30.0 | 29.9 | 0.00 |
| 2/6/2026 | 71 | 49.8 | 46 | 44 | 31.6 | 19 | 93 | 55.4 | 26 | 18 | 9.9 | 0 | 30.0 | 30.0 | 29.9 | 0.03 |
| 2/5/2026 | 63 | 54.6 | 35 | 57 | 46.8 | 28 | 97 | 77.0 | 39 | 23 | 11.1 | 0 | 30.0 | 29.9 | 29.8 | 0.02 |
| 2/4/2026 | 59 | 57.5 | 43 | 45 | 41.3 | 35 | 86 | 57.5 | 34 | 17 | 5.7 | 0 | 30.2 | 30.1 | 30.0 | 0.00 |
| 2/3/2026 | 74 | 48.1 | 41 | 34 | 28.6 | 22 | 96 | 52.9 | 22 | 8 | 2.1 | 0 | 30.3 | 30.2 | 30.2 | 0.00 |
| 2/2/2026 | 64 | 42.1 | 30 | 28 | 17.0 | 11 | 79 | 40.9 | 19 | 13 | 7.5 | 0 | 30.3 | 30.3 | 30.2 | 0.00 |
| 2/1/2026 | 54 | 34.1 | 28 | 26 | 12.7 | 4 | 70 | 43.8 | 18 | 23 | 13.8 | 0 | 30.2 | 30.1 | 30.0 | 0.00 |